Time,TemperatureF,DewpointF,PressureIn,WindDirection,WindDirectionDegrees,WindSpeedMPH,WindSpeedGustMPH,Humidity,HourlyPrecipIn,Conditions,Clouds,dailyrainin,SoftwareType,DateUTC
2013-06-19 00:01:00,69.5,63.0,30.01,NE,56,3.0,3.0,81,0.00,,,1.42,weatherlink.com 1.10,2013-06-19 04:01:00,
2013-06-19 00:16:00,69.3,63.0,30.01,East,81,0.0,4.0,81,0.00,,,0.00,weatherlink.com 1.10,2013-06-19 04:16:00,
2013-06-19 00:31:00,68.4,63.0,30.00,ENE,60,1.0,1.0,84,0.00,,,0.00,weatherlink.com 1.10,2013-06-19 04:31:00,
2013-06-19 00:46:00,68.3,64.0,30.00,NE,51,2.0,4.0,85,0.00,,,0.00,weatherlink.com 1.10,2013-06-19 04:46:00,
2013-06-19 01:01:00,68.2,64.0,30.00,East,94,3.0,5.0,85,0.00,,,0.00,weatherlink.com 1.10,2013-06-19 05:01:00,
2013-06-19 01:16:00,67.9,64.0,29.99,ENE,57,3.0,6.0,86,0.00,,,0.00,weatherlink.com 1.10,2013-06-19 05:16:00,
2013-06-19 01:31:00,67.5,64.0,29.99,East,79,2.0,6.0,87,0.00,,,0.00,weatherlink.com 1.10,2013-06-19 05:31:00,
2013-06-19 01:46:00,67.1,64.0,29.99,East,88,3.0,5.0,88,0.00,,,0.00,weatherlink.com 1.10,2013-06-19 05:46:00,
2013-06-19 02:01:00,66.6,64.0,29.99,East,80,4.0,5.0,90,0.00,,,0.00,weatherlink.com 1.10,2013-06-19 06:01:00,
2013-06-19 02:16:00,66.5,64.0,30.00,East,85,1.0,6.0,91,0.00,,,0.00,weatherlink.com 1.10,2013-06-19 06:16:00,
2013-06-19 02:31:00,66.4,64.0,29.99,East,85,1.0,5.0,91,0.00,,,0.00,weatherlink.com 1.10,2013-06-19 06:31:00,
2013-06-19 02:46:00,66.0,64.0,30.00,ENE,58,0.0,2.0,93,0.00,,,0.00,weatherlink.com 1.10,2013-06-19 06:46:00,
2013-06-19 03:01:00,66.3,65.0,30.00,East,89,2.0,3.0,94,0.00,,,0.00,weatherlink.com 1.10,2013-06-19 07:01:00,
2013-06-19 03:16:00,66.7,64.0,30.00,East,93,0.0,3.0,92,0.00,,,0.00,weatherlink.com 1.10,2013-06-19 07:16:00,
2013-06-19 03:31:00,65.8,64.0,30.00,NE,41,0.0,1.0,94,0.00,,,0.00,weatherlink.com 1.10,2013-06-19 07:31:00,
2013-06-19 03:46:00,65.9,64.0,30.00,NE,41,0.0,1.0,94,0.00,,,0.00,weatherlink.com 1.10,2013-06-19 07:46:00,
2013-06-19 04:01:00,65.4,63.0,30.00,NNE,13,2.0,4.0,93,0.00,,,0.00,weatherlink.com 1.10,2013-06-19 08:01:00,
2013-06-19 04:16:00,65.2,64.0,30.00,NNW,343,1.0,3.0,94,0.00,,,0.00,weatherlink.com 1.10,2013-06-19 08:16:00,
2013-06-19 04:31:00,64.9,63.0,30.00,NNW,334,2.0,3.0,94,0.00,,,0.00,weatherlink.com 1.10,2013-06-19 08:31:00,
2013-06-19 04:46:00,64.2,63.0,30.00,North,5,2.0,3.0,96,0.00,,,0.00,weatherlink.com 1.10,2013-06-19 08:46:00,
2013-06-19 05:01:00,65.1,64.0,29.99,NE,54,1.0,4.0,95,0.00,,,0.00,weatherlink.com 1.10,2013-06-19 09:01:00,
2013-06-19 05:16:00,65.6,63.0,30.00,NNE,17,4.0,4.0,92,0.00,,,0.00,weatherlink.com 1.10,2013-06-19 09:16:00,
2013-06-19 05:31:00,64.1,63.0,30.00,NNE,12,3.0,4.0,95,0.00,,,0.00,weatherlink.com 1.10,2013-06-19 09:31:00,
2013-06-19 05:46:00,64.6,63.0,30.01,NNE,13,3.0,4.0,95,0.00,,,0.00,weatherlink.com 1.10,2013-06-19 09:46:00,
2013-06-19 06:01:00,63.9,63.0,30.01,North,6,3.0,5.0,95,0.00,,,0.00,weatherlink.com 1.10,2013-06-19 10:01:00,
2013-06-19 06:17:00,63.9,63.0,30.02,North,3,4.0,6.0,95,0.00,,,0.00,weatherlink.com 1.10,2013-06-19 10:17:00,
2013-06-19 06:32:00,63.4,62.0,30.03,NE,41,4.0,5.0,96,0.00,,,0.00,weatherlink.com 1.10,2013-06-19 10:32:00,
2013-06-19 06:47:00,63.0,62.0,30.04,North,11,2.0,5.0,97,0.00,,,0.00,weatherlink.com 1.10,2013-06-19 10:47:00,
2013-06-19 07:02:00,63.5,62.0,30.05,ENE,61,1.0,3.0,96,0.00,,,0.00,weatherlink.com 1.10,2013-06-19 11:02:00,
2013-06-19 07:17:00,64.1,63.0,30.05,NNE,31,0.0,6.0,95,0.00,,,0.00,weatherlink.com 1.10,2013-06-19 11:17:00,
2013-06-19 07:32:00,64.5,63.0,30.06,ESE,116,2.0,4.0,95,0.00,,,0.00,weatherlink.com 1.10,2013-06-19 11:32:00,
2013-06-19 07:47:00,64.9,63.0,30.06,East,86,3.0,5.0,94,0.00,,,0.00,weatherlink.com 1.10,2013-06-19 11:47:00,
2013-06-19 08:02:00,65.9,64.0,30.07,East,79,0.0,5.0,93,0.00,,,0.00,weatherlink.com 1.10,2013-06-19 12:02:00,
2013-06-19 08:17:00,67.6,65.0,30.07,ESE,111,0.0,3.0,90,0.00,,,0.00,weatherlink.com 1.10,2013-06-19 12:17:00,
2013-06-19 08:32:00,67.8,65.0,30.08,NNE,25,0.0,4.0,89,0.00,,,0.00,weatherlink.com 1.10,2013-06-19 12:32:00,
2013-06-19 08:47:00,69.5,66.0,30.08,East,83,1.0,2.0,87,0.00,,,0.00,weatherlink.com 1.10,2013-06-19 12:47:00,
2013-06-19 09:02:00,69.5,66.0,30.09,ESE,116,2.0,5.0,87,0.00,,,0.00,weatherlink.com 1.10,2013-06-19 13:02:00,
2013-06-19 09:17:00,69.8,66.0,30.09,East,98,2.0,4.0,86,0.00,,,0.00,weatherlink.com 1.10,2013-06-19 13:17:00,
2013-06-19 09:32:00,70.2,66.0,30.09,East,91,0.0,5.0,85,0.00,,,0.00,weatherlink.com 1.10,2013-06-19 13:32:00,
2013-06-19 09:47:00,70.7,66.0,30.09,ESE,117,2.0,5.0,84,0.00,,,0.00,weatherlink.com 1.10,2013-06-19 13:47:00,
2013-06-19 10:02:00,70.2,66.0,30.09,SE,125,4.0,7.0,85,0.00,,,0.00,weatherlink.com 1.10,2013-06-19 14:02:00,
2013-06-19 10:17:00,69.7,66.0,30.09,ESE,122,7.0,7.0,87,0.00,,,0.00,weatherlink.com 1.10,2013-06-19 14:17:00,
2013-06-19 10:32:00,71.0,66.0,30.09,ESE,113,4.0,7.0,84,0.00,,,0.00,weatherlink.com 1.10,2013-06-19 14:32:00,
2013-06-19 10:47:00,71.8,66.0,30.09,East,91,1.0,7.0,82,0.00,,,0.00,weatherlink.com 1.10,2013-06-19 14:47:00,
2013-06-19 11:02:00,75.1,67.0,30.09,ESE,112,4.0,6.0,76,0.00,,,0.00,weatherlink.com 1.10,2013-06-19 15:02:00,
2013-06-19 11:17:00,74.5,66.0,30.09,ESE,105,3.0,9.0,74,0.00,,,0.00,weatherlink.com 1.10,2013-06-19 15:17:00,
2013-06-19 11:32:00,75.3,67.0,30.10,ESE,114,8.0,8.0,76,0.00,,,0.00,weatherlink.com 1.10,2013-06-19 15:32:00,
2013-06-19 11:47:00,77.1,67.0,30.10,NE,53,2.0,6.0,71,0.00,,,0.00,weatherlink.com 1.10,2013-06-19 15:47:00,
2013-06-19 12:02:00,77.8,66.0,30.10,ENE,70,0.0,7.0,68,0.00,,,0.00,weatherlink.com 1.10,2013-06-19 16:02:00,
2013-06-19 12:17:00,78.3,66.0,30.11,ESE,110,0.0,7.0,65,0.00,,,0.00,weatherlink.com 1.10,2013-06-19 16:17:00,
2013-06-19 12:32:00,79.0,67.0,30.10,ESE,110,1.0,7.0,66,0.00,,,0.00,weatherlink.com 1.10,2013-06-19 16:32:00,
2013-06-19 12:47:00,79.6,66.0,30.10,ESE,115,1.0,10.0,63,0.00,,,0.00,weatherlink.com 1.10,2013-06-19 16:47:00,
2013-06-19 13:02:00,80.2,64.0,30.10,NNE,20,1.0,6.0,59,0.00,,,0.00,weatherlink.com 1.10,2013-06-19 17:02:00,
2013-06-19 13:17:00,81.1,66.0,30.10,ESE,114,6.0,6.0,61,0.00,,,0.00,weatherlink.com 1.10,2013-06-19 17:17:00,
2013-06-19 13:32:00,82.9,66.0,30.10,ESE,114,1.0,4.0,56,0.00,,,0.00,weatherlink.com 1.10,2013-06-19 17:32:00,
2013-06-19 13:48:00,81.8,65.0,30.09,North,1,0.0,7.0,58,0.00,,,0.00,weatherlink.com 1.10,2013-06-19 17:48:00,
2013-06-19 14:03:00,81.3,67.0,30.09,ESE,107,3.0,8.0,63,0.00,,,0.00,weatherlink.com 1.10,2013-06-19 18:03:00,
2013-06-19 14:18:00,81.6,65.0,30.09,SE,142,1.0,8.0,58,0.00,,,0.00,weatherlink.com 1.10,2013-06-19 18:18:00,
2013-06-19 14:33:00,82.5,66.0,30.08,NNE,30,2.0,7.0,57,0.00,,,0.00,weatherlink.com 1.10,2013-06-19 18:33:00,
2013-06-19 14:48:00,82.6,64.0,30.08,ENE,60,1.0,8.0,54,0.00,,,0.00,weatherlink.com 1.10,2013-06-19 18:48:00,
2013-06-19 15:03:00,82.0,64.0,30.07,SE,132,3.0,11.0,55,0.00,,,0.00,weatherlink.com 1.10,2013-06-19 19:03:00,
2013-06-19 15:18:00,81.6,62.0,30.07,ESE,109,7.0,14.0,52,0.00,,,0.00,weatherlink.com 1.10,2013-06-19 19:18:00,
2013-06-19 15:33:00,82.4,62.0,30.07,East,101,9.0,11.0,50,0.00,,,0.00,weatherlink.com 1.10,2013-06-19 19:33:00,
2013-06-19 15:48:00,82.3,63.0,30.07,NE,42,2.0,11.0,52,0.00,,,0.00,weatherlink.com 1.10,2013-06-19 19:48:00,
2013-06-19 16:03:00,82.6,63.0,30.07,ESE,122,3.0,9.0,52,0.00,,,0.00,weatherlink.com 1.10,2013-06-19 20:03:00,
2013-06-19 16:18:00,84.4,64.0,30.07,NE,53,0.0,4.0,51,0.00,,,0.00,weatherlink.com 1.10,2013-06-19 20:18:00,
2013-06-19 16:33:00,82.2,62.0,30.06,ESE,105,3.0,8.0,51,0.00,,,0.00,weatherlink.com 1.10,2013-06-19 20:33:00,
2013-06-19 16:48:00,84.5,63.0,30.06,East,101,4.0,6.0,49,0.00,,,0.00,weatherlink.com 1.10,2013-06-19 20:48:00,
2013-06-19 17:03:00,81.7,63.0,30.06,East,88,5.0,5.0,54,0.00,,,0.00,weatherlink.com 1.10,2013-06-19 21:03:00,
2013-06-19 17:18:00,82.9,63.0,30.06,ESE,112,5.0,7.0,51,0.00,,,0.00,weatherlink.com 1.10,2013-06-19 21:18:00,
2013-06-19 17:33:00,84.7,63.0,30.06,SW,219,2.0,4.0,48,0.00,,,0.00,weatherlink.com 1.10,2013-06-19 21:33:00,
2013-06-19 17:48:00,84.0,64.0,30.06,ENE,57,0.0,5.0,51,0.00,,,0.00,weatherlink.com 1.10,2013-06-19 21:48:00,
2013-06-19 18:03:00,83.8,64.0,30.06,NNE,15,0.0,3.0,51,0.00,,,0.00,weatherlink.com 1.10,2013-06-19 22:03:00,
2013-06-19 18:18:00,81.8,62.0,30.06,NE,41,0.0,3.0,52,0.00,,,0.00,weatherlink.com 1.10,2013-06-19 22:18:00,
2013-06-19 18:33:00,81.5,62.0,30.06,NE,48,0.0,1.0,52,0.00,,,0.00,weatherlink.com 1.10,2013-06-19 22:33:00,
2013-06-19 18:48:00,81.0,63.0,30.06,East,96,3.0,3.0,54,0.00,,,0.00,weatherlink.com 1.10,2013-06-19 22:48:00,
2013-06-19 19:03:00,80.6,63.0,30.06,East,91,2.0,4.0,55,0.00,,,0.00,weatherlink.com 1.10,2013-06-19 23:03:00,
2013-06-19 19:18:00,81.7,64.0,30.06,East,93,4.0,6.0,55,0.00,,,0.00,weatherlink.com 1.10,2013-06-19 23:18:00,
2013-06-19 19:33:00,81.6,64.0,30.07,ENE,66,0.0,3.0,55,0.00,,,0.00,weatherlink.com 1.10,2013-06-19 23:33:00,
2013-06-19 19:48:00,80.8,64.0,30.07,East,100,0.0,5.0,56,0.00,,,0.00,weatherlink.com 1.10,2013-06-19 23:48:00,
2013-06-19 20:03:00,80.4,63.0,30.07,ENE,60,2.0,4.0,56,0.00,,,0.00,weatherlink.com 1.10,2013-06-20 00:03:00,
2013-06-19 20:18:00,79.5,63.0,30.08,NE,41,1.0,5.0,58,0.00,,,0.00,weatherlink.com 1.10,2013-06-20 00:18:00,
2013-06-19 20:33:00,79.2,65.0,30.08,NNE,20,0.0,3.0,61,0.00,,,0.00,weatherlink.com 1.10,2013-06-20 00:33:00,
2013-06-19 20:48:00,78.3,64.0,30.09,NNE,32,2.0,5.0,62,0.00,,,0.00,weatherlink.com 1.10,2013-06-20 00:48:00,
2013-06-19 21:03:00,77.7,64.0,30.09,East,84,4.0,5.0,63,0.00,,,0.00,weatherlink.com 1.10,2013-06-20 01:03:00,
2013-06-19 21:18:00,77.2,65.0,30.09,NE,35,1.0,5.0,65,0.00,,,0.00,weatherlink.com 1.10,2013-06-20 01:18:00,
2013-06-19 21:33:00,77.1,65.0,30.09,NE,41,1.0,4.0,66,0.00,,,0.00,weatherlink.com 1.10,2013-06-20 01:33:00,
2013-06-19 21:48:00,76.5,65.0,30.10,NE,37,1.0,3.0,68,0.00,,,0.00,weatherlink.com 1.10,2013-06-20 01:48:00,
2013-06-19 22:03:00,76.6,65.0,30.10,NE,53,1.0,3.0,67,0.00,,,0.00,weatherlink.com 1.10,2013-06-20 02:03:00,
2013-06-19 22:18:00,76.1,65.0,30.10,NNE,27,2.0,3.0,68,0.00,,,0.00,weatherlink.com 1.10,2013-06-20 02:18:00,
2013-06-19 22:33:00,76.0,64.0,30.11,NE,53,4.0,4.0,67,0.00,,,0.00,weatherlink.com 1.10,2013-06-20 02:33:00,
2013-06-19 22:48:00,76.6,64.0,30.11,East,96,1.0,5.0,65,0.00,,,0.00,weatherlink.com 1.10,2013-06-20 02:48:00,
2013-06-19 23:03:00,76.1,64.0,30.12,East,89,0.0,1.0,67,0.00,,,0.00,weatherlink.com 1.10,2013-06-20 03:03:00,
2013-06-19 23:18:00,75.3,65.0,30.12,ENE,59,2.0,2.0,71,0.00,,,0.00,weatherlink.com 1.10,2013-06-20 03:18:00,
2013-06-19 23:33:00,74.8,66.0,30.12,NE,51,4.0,7.0,73,0.00,,,0.00,weatherlink.com 1.10,2013-06-20 03:33:00,
2013-06-19 23:48:00,74.5,65.0,30.12,NE,38,1.0,5.0,73,0.00,,,0.00,weatherlink.com 1.10,2013-06-20 03:48:00,